sensor_id;sensor_type;location;lat;lon;timestamp;temperature;humidity
17178;DHT22;8704;52.006;4.374;2022-11-12T00:01:09;8.00;99.90
17178;DHT22;8704;52.006;4.374;2022-11-12T00:03:37;8.10;99.90
17178;DHT22;8704;52.006;4.374;2022-11-12T00:06:05;8.20;99.90
17178;DHT22;8704;52.006;4.374;2022-11-12T00:08:33;8.20;99.90
17178;DHT22;8704;52.006;4.374;2022-11-12T00:11:01;8.70;99.90
17178;DHT22;8704;52.006;4.374;2022-11-12T00:13:30;8.20;99.90
17178;DHT22;8704;52.006;4.374;2022-11-12T00:15:59;8.20;99.90
17178;DHT22;8704;52.006;4.374;2022-11-12T00:18:27;8.30;99.90
17178;DHT22;8704;52.006;4.374;2022-11-12T00:20:55;8.30;99.90
17178;DHT22;8704;52.006;4.374;2022-11-12T00:23:23;8.40;99.90
17178;DHT22;8704;52.006;4.374;2022-11-12T00:25:57;8.40;99.90
17178;DHT22;8704;52.006;4.374;2022-11-12T00:28:25;8.40;99.90
17178;DHT22;8704;52.006;4.374;2022-11-12T00:31:06;8.50;99.90
17178;DHT22;8704;52.006;4.374;2022-11-12T00:33:37;8.60;99.90
17178;DHT22;8704;52.006;4.374;2022-11-12T00:36:06;8.50;99.90
17178;DHT22;8704;52.006;4.374;2022-11-12T00:38:34;8.50;99.90
17178;DHT22;8704;52.006;4.374;2022-11-12T00:41:02;8.50;99.90
17178;DHT22;8704;52.006;4.374;2022-11-12T00:43:30;8.50;99.90
17178;DHT22;8704;52.006;4.374;2022-11-12T00:45:59;8.60;99.90
17178;DHT22;8704;52.006;4.374;2022-11-12T00:48:27;8.60;99.90
17178;DHT22;8704;52.006;4.374;2022-11-12T00:51:00;8.60;99.90
17178;DHT22;8704;52.006;4.374;2022-11-12T00:53:28;8.70;99.90
17178;DHT22;8704;52.006;4.374;2022-11-12T00:56:00;8.70;99.90
17178;DHT22;8704;52.006;4.374;2022-11-12T00:58:28;8.70;99.90
17178;DHT22;8704;52.006;4.374;2022-11-12T01:00:57;8.70;99.90
17178;DHT22;8704;52.006;4.374;2022-11-12T01:03:28;8.70;99.90
17178;DHT22;8704;52.006;4.374;2022-11-12T01:06:01;8.80;99.90
17178;DHT22;8704;52.006;4.374;2022-11-12T01:08:29;8.80;99.90
17178;DHT22;8704;52.006;4.374;2022-11-12T01:11:04;8.80;99.90
17178;DHT22;8704;52.006;4.374;2022-11-12T01:13:32;8.80;99.90
17178;DHT22;8704;52.006;4.374;2022-11-12T01:16:12;8.80;99.90
17178;DHT22;8704;52.006;4.374;2022-11-12T01:18:42;8.80;99.90
17178;DHT22;8704;52.006;4.374;2022-11-12T01:21:11;8.80;99.90
17178;DHT22;8704;52.006;4.374;2022-11-12T01:23:40;8.80;99.90
17178;DHT22;8704;52.006;4.374;2022-11-12T01:26:11;8.80;99.90
17178;DHT22;8704;52.006;4.374;2022-11-12T01:28:40;8.80;99.90
17178;DHT22;8704;52.006;4.374;2022-11-12T01:31:14;8.80;99.90
17178;DHT22;8704;52.006;4.374;2022-11-12T01:33:44;8.80;99.90
17178;DHT22;8704;52.006;4.374;2022-11-12T01:36:14;8.90;99.90
17178;DHT22;8704;52.006;4.374;2022-11-12T01:38:43;8.90;99.90
17178;DHT22;8704;52.006;4.374;2022-11-12T01:41:13;8.90;99.90
17178;DHT22;8704;52.006;4.374;2022-11-12T01:43:42;8.90;99.90
17178;DHT22;8704;52.006;4.374;2022-11-12T01:46:14;8.90;99.90
17178;DHT22;8704;52.006;4.374;2022-11-12T01:48:49;8.90;99.90
17178;DHT22;8704;52.006;4.374;2022-11-12T01:51:19;8.90;99.90
17178;DHT22;8704;52.006;4.374;2022-11-12T01:53:51;8.90;99.90
17178;DHT22;8704;52.006;4.374;2022-11-12T01:56:21;8.90;99.90
17178;DHT22;8704;52.006;4.374;2022-11-12T01:58:53;8.90;99.90
17178;DHT22;8704;52.006;4.374;2022-11-12T02:01:22;9.00;99.90
17178;DHT22;8704;52.006;4.374;2022-11-12T02:03:52;9.00;99.90
17178;DHT22;8704;52.006;4.374;2022-11-12T02:06:20;9.00;99.90
17178;DHT22;8704;52.006;4.374;2022-11-12T02:08:48;9.00;99.90
17178;DHT22;8704;52.006;4.374;2022-11-12T02:11:19;9.00;99.90
17178;DHT22;8704;52.006;4.374;2022-11-12T02:13:49;9.00;99.90
17178;DHT22;8704;52.006;4.374;2022-11-12T02:16:29;9.10;99.90
17178;DHT22;8704;52.006;4.374;2022-11-12T02:19:00;9.00;99.90
17178;DHT22;8704;52.006;4.374;2022-11-12T02:21:30;9.10;99.90
17178;DHT22;8704;52.006;4.374;2022-11-12T02:24:00;9.00;99.90
17178;DHT22;8704;52.006;4.374;2022-11-12T02:26:32;9.10;99.90
17178;DHT22;8704;52.006;4.374;2022-11-12T02:29:01;9.10;99.90
17178;DHT22;8704;52.006;4.374;2022-11-12T02:31:30;9.10;99.90
17178;DHT22;8704;52.006;4.374;2022-11-12T02:33:58;9.00;99.90
17178;DHT22;8704;52.006;4.374;2022-11-12T02:36:26;9.10;99.90
17178;DHT22;8704;52.006;4.374;2022-11-12T02:38:56;9.10;99.90
17178;DHT22;8704;52.006;4.374;2022-11-12T02:41:24;9.00;99.90
17178;DHT22;8704;52.006;4.374;2022-11-12T02:43:52;9.10;99.90
17178;DHT22;8704;52.006;4.374;2022-11-12T02:46:20;9.10;99.90
17178;DHT22;8704;52.006;4.374;2022-11-12T02:48:48;9.10;99.90
17178;DHT22;8704;52.006;4.374;2022-11-12T02:51:16;9.10;99.90
17178;DHT22;8704;52.006;4.374;2022-11-12T02:53:43;9.10;99.90
17178;DHT22;8704;52.006;4.374;2022-11-12T02:56:13;9.20;99.90
17178;DHT22;8704;52.006;4.374;2022-11-12T02:58:41;9.20;99.90
17178;DHT22;8704;52.006;4.374;2022-11-12T03:01:09;9.20;99.90
17178;DHT22;8704;52.006;4.374;2022-11-12T03:03:37;9.20;99.90
17178;DHT22;8704;52.006;4.374;2022-11-12T03:06:05;9.10;99.90
17178;DHT22;8704;52.006;4.374;2022-11-12T03:08:33;9.20;99.90
17178;DHT22;8704;52.006;4.374;2022-11-12T03:11:05;9.20;99.90
17178;DHT22;8704;52.006;4.374;2022-11-12T03:13:35;9.20;99.90
17178;DHT22;8704;52.006;4.374;2022-11-12T03:16:03;9.20;99.90
17178;DHT22;8704;52.006;4.374;2022-11-12T03:18:31;9.20;99.90
17178;DHT22;8704;52.006;4.374;2022-11-12T03:20:59;9.20;99.90
17178;DHT22;8704;52.006;4.374;2022-11-12T03:23:27;9.10;99.90
17178;DHT22;8704;52.006;4.374;2022-11-12T03:25:55;9.20;99.90
17178;DHT22;8704;52.006;4.374;2022-11-12T03:28:23;9.20;99.90
17178;DHT22;8704;52.006;4.374;2022-11-12T03:30:56;9.20;99.90
17178;DHT22;8704;52.006;4.374;2022-11-12T03:33:24;9.20;99.90
17178;DHT22;8704;52.006;4.374;2022-11-12T03:35:52;9.20;99.90
17178;DHT22;8704;52.006;4.374;2022-11-12T03:38:20;9.20;99.90
17178;DHT22;8704;52.006;4.374;2022-11-12T03:40:49;9.20;99.90
17178;DHT22;8704;52.006;4.374;2022-11-12T03:43:17;9.20;99.90
17178;DHT22;8704;52.006;4.374;2022-11-12T03:45:44;9.20;99.90
17178;DHT22;8704;52.006;4.374;2022-11-12T03:48:14;9.20;99.90
17178;DHT22;8704;52.006;4.374;2022-11-12T03:50:43;9.20;99.90
17178;DHT22;8704;52.006;4.374;2022-11-12T03:53:11;9.20;99.90
17178;DHT22;8704;52.006;4.374;2022-11-12T03:55:39;9.30;99.90
17178;DHT22;8704;52.006;4.374;2022-11-12T03:58:07;9.20;99.90
17178;DHT22;8704;52.006;4.374;2022-11-12T04:00:35;9.30;99.90
17178;DHT22;8704;52.006;4.374;2022-11-12T04:03:03;9.30;99.90
17178;DHT22;8704;52.006;4.374;2022-11-12T04:05:32;9.20;99.90
17178;DHT22;8704;52.006;4.374;2022-11-12T04:08:20;9.20;99.90
17178;DHT22;8704;52.006;4.374;2022-11-12T04:11:06;9.20;99.90
17178;DHT22;8704;52.006;4.374;2022-11-12T04:13:35;9.20;99.90
17178;DHT22;8704;52.006;4.374;2022-11-12T04:16:07;9.30;99.90
17178;DHT22;8704;52.006;4.374;2022-11-12T04:18:54;9.10;99.90
17178;DHT22;8704;52.006;4.374;2022-11-12T04:21:43;9.10;99.90
17178;DHT22;8704;52.006;4.374;2022-11-12T04:24:18;9.00;99.90
17178;DHT22;8704;52.006;4.374;2022-11-12T04:27:05;9.00;99.90
17178;DHT22;8704;52.006;4.374;2022-11-12T04:29:33;9.00;99.90
17178;DHT22;8704;52.006;4.374;2022-11-12T04:32:19;8.90;99.90
17178;DHT22;8704;52.006;4.374;2022-11-12T04:34:47;9.00;99.90
17178;DHT22;8704;52.006;4.374;2022-11-12T04:37:17;8.90;99.90
17178;DHT22;8704;52.006;4.374;2022-11-12T04:39:49;9.00;99.90
17178;DHT22;8704;52.006;4.374;2022-11-12T04:42:17;8.90;99.90
17178;DHT22;8704;52.006;4.374;2022-11-12T04:45:05;8.80;99.90
17178;DHT22;8704;52.006;4.374;2022-11-12T04:47:36;8.80;99.90
17178;DHT22;8704;52.006;4.374;2022-11-12T04:50:05;8.70;99.90
17178;DHT22;8704;52.006;4.374;2022-11-12T04:52:35;8.70;99.90
17178;DHT22;8704;52.006;4.374;2022-11-12T04:55:04;8.70;99.90
17178;DHT22;8704;52.006;4.374;2022-11-12T04:57:32;8.70;99.90
17178;DHT22;8704;52.006;4.374;2022-11-12T05:00:00;8.70;99.90
17178;DHT22;8704;52.006;4.374;2022-11-12T05:02:28;8.60;99.90
17178;DHT22;8704;52.006;4.374;2022-11-12T05:04:56;8.60;99.90
17178;DHT22;8704;52.006;4.374;2022-11-12T05:07:23;8.60;99.90
17178;DHT22;8704;52.006;4.374;2022-11-12T05:09:53;8.50;99.90
17178;DHT22;8704;52.006;4.374;2022-11-12T05:12:21;8.50;99.90
17178;DHT22;8704;52.006;4.374;2022-11-12T05:14:49;8.50;99.90
17178;DHT22;8704;52.006;4.374;2022-11-12T05:17:17;8.50;99.90
17178;DHT22;8704;52.006;4.374;2022-11-12T05:19:45;8.40;99.90
17178;DHT22;8704;52.006;4.374;2022-11-12T05:22:12;8.40;99.90
17178;DHT22;8704;52.006;4.374;2022-11-12T05:25:02;8.30;99.90
17178;DHT22;8704;52.006;4.374;2022-11-12T05:27:31;8.30;99.90
17178;DHT22;8704;52.006;4.374;2022-11-12T05:29:59;8.30;99.90
17178;DHT22;8704;52.006;4.374;2022-11-12T05:32:27;8.30;99.90
17178;DHT22;8704;52.006;4.374;2022-11-12T05:34:55;8.30;99.90
17178;DHT22;8704;52.006;4.374;2022-11-12T05:37:22;8.30;99.90
17178;DHT22;8704;52.006;4.374;2022-11-12T05:39:50;8.20;99.90
17178;DHT22;8704;52.006;4.374;2022-11-12T05:42:20;8.20;99.90
17178;DHT22;8704;52.006;4.374;2022-11-12T05:44:48;8.20;99.90
17178;DHT22;8704;52.006;4.374;2022-11-12T05:47:15;8.20;99.90
17178;DHT22;8704;52.006;4.374;2022-11-12T05:49:43;8.20;99.90
17178;DHT22;8704;52.006;4.374;2022-11-12T05:52:11;8.10;99.90
17178;DHT22;8704;52.006;4.374;2022-11-12T05:54:39;8.10;99.90
17178;DHT22;8704;52.006;4.374;2022-11-12T05:57:07;8.00;99.90
17178;DHT22;8704;52.006;4.374;2022-11-12T05:59:36;8.00;99.90
17178;DHT22;8704;52.006;4.374;2022-11-12T06:02:04;8.10;99.90
17178;DHT22;8704;52.006;4.374;2022-11-12T06:04:32;8.00;99.90
17178;DHT22;8704;52.006;4.374;2022-11-12T06:07:00;8.00;99.90
17178;DHT22;8704;52.006;4.374;2022-11-12T06:09:29;8.20;99.90
17178;DHT22;8704;52.006;4.374;2022-11-12T06:11:57;8.00;99.90
17178;DHT22;8704;52.006;4.374;2022-11-12T06:14:25;8.00;99.90
17178;DHT22;8704;52.006;4.374;2022-11-12T06:16:55;8.00;99.90
17178;DHT22;8704;52.006;4.374;2022-11-12T06:19:22;8.00;99.90
17178;DHT22;8704;52.006;4.374;2022-11-12T06:21:50;7.90;99.90
17178;DHT22;8704;52.006;4.374;2022-11-12T06:24:19;7.90;99.90
17178;DHT22;8704;52.006;4.374;2022-11-12T06:26:46;7.90;99.90
17178;DHT22;8704;52.006;4.374;2022-11-12T06:29:14;7.90;99.90
17178;DHT22;8704;52.006;4.374;2022-11-12T06:31:42;7.90;99.90
17178;DHT22;8704;52.006;4.374;2022-11-12T06:34:12;7.90;99.90
17178;DHT22;8704;52.006;4.374;2022-11-12T06:36:40;7.90;99.90
17178;DHT22;8704;52.006;4.374;2022-11-12T06:39:09;7.90;99.90
17178;DHT22;8704;52.006;4.374;2022-11-12T06:41:37;7.80;99.90
17178;DHT22;8704;52.006;4.374;2022-11-12T06:44:05;7.80;99.90
17178;DHT22;8704;52.006;4.374;2022-11-12T06:46:33;7.70;99.90
17178;DHT22;8704;52.006;4.374;2022-11-12T06:49:01;7.70;99.90
17178;DHT22;8704;52.006;4.374;2022-11-12T06:51:30;7.70;99.90
17178;DHT22;8704;52.006;4.374;2022-11-12T06:53:58;7.70;99.90
17178;DHT22;8704;52.006;4.374;2022-11-12T06:56:26;7.60;99.90
17178;DHT22;8704;52.006;4.374;2022-11-12T06:58:54;8.80;99.90
17178;DHT22;8704;52.006;4.374;2022-11-12T07:01:22;7.50;99.90
17178;DHT22;8704;52.006;4.374;2022-11-12T07:03:51;7.50;99.90
17178;DHT22;8704;52.006;4.374;2022-11-12T07:06:19;7.50;99.90
17178;DHT22;8704;52.006;4.374;2022-11-12T07:08:49;7.50;99.90
17178;DHT22;8704;52.006;4.374;2022-11-12T07:11:18;7.40;99.90
17178;DHT22;8704;52.006;4.374;2022-11-12T07:13:46;7.40;99.90
17178;DHT22;8704;52.006;4.374;2022-11-12T07:16:14;7.40;99.90
17178;DHT22;8704;52.006;4.374;2022-11-12T07:18:45;7.60;99.90
17178;DHT22;8704;52.006;4.374;2022-11-12T07:21:15;7.30;99.90
17178;DHT22;8704;52.006;4.374;2022-11-12T07:23:44;7.30;99.90
17178;DHT22;8704;52.006;4.374;2022-11-12T07:26:15;7.30;99.90
17178;DHT22;8704;52.006;4.374;2022-11-12T07:28:43;7.20;99.90
17178;DHT22;8704;52.006;4.374;2022-11-12T07:31:13;7.30;99.90
17178;DHT22;8704;52.006;4.374;2022-11-12T07:33:42;7.20;99.90
17178;DHT22;8704;52.006;4.374;2022-11-12T07:36:11;7.20;99.90
17178;DHT22;8704;52.006;4.374;2022-11-12T07:38:41;7.20;99.90
17178;DHT22;8704;52.006;4.374;2022-11-12T07:41:11;7.20;99.90
17178;DHT22;8704;52.006;4.374;2022-11-12T07:43:42;7.20;99.90
17178;DHT22;8704;52.006;4.374;2022-11-12T07:46:13;7.20;99.90
17178;DHT22;8704;52.006;4.374;2022-11-12T07:48:41;7.20;99.90
17178;DHT22;8704;52.006;4.374;2022-11-12T07:51:13;7.20;99.90
17178;DHT22;8704;52.006;4.374;2022-11-12T07:53:41;7.20;99.90
17178;DHT22;8704;52.006;4.374;2022-11-12T07:56:10;7.20;99.90
17178;DHT22;8704;52.006;4.374;2022-11-12T07:58:38;7.20;99.90
17178;DHT22;8704;52.006;4.374;2022-11-12T08:01:09;7.20;99.90
17178;DHT22;8704;52.006;4.374;2022-11-12T08:03:37;7.20;99.90
17178;DHT22;8704;52.006;4.374;2022-11-12T08:06:05;7.20;99.90
17178;DHT22;8704;52.006;4.374;2022-11-12T08:08:35;7.20;99.90
17178;DHT22;8704;52.006;4.374;2022-11-12T08:11:03;7.20;99.90
17178;DHT22;8704;52.006;4.374;2022-11-12T08:13:31;7.20;99.90
17178;DHT22;8704;52.006;4.374;2022-11-12T08:15:59;7.20;99.90
17178;DHT22;8704;52.006;4.374;2022-11-12T08:18:28;7.20;99.90
17178;DHT22;8704;52.006;4.374;2022-11-12T08:21:00;7.30;99.90
17178;DHT22;8704;52.006;4.374;2022-11-12T08:23:30;7.30;99.90
17178;DHT22;8704;52.006;4.374;2022-11-12T08:25:58;7.30;99.90
17178;DHT22;8704;52.006;4.374;2022-11-12T08:28:27;7.40;99.90
17178;DHT22;8704;52.006;4.374;2022-11-12T08:30:57;7.40;99.90
17178;DHT22;8704;52.006;4.374;2022-11-12T08:33:25;7.40;99.90
17178;DHT22;8704;52.006;4.374;2022-11-12T08:35:55;7.50;99.90
17178;DHT22;8704;52.006;4.374;2022-11-12T08:38:22;7.50;99.90
17178;DHT22;8704;52.006;4.374;2022-11-12T08:40:51;7.50;99.90
17178;DHT22;8704;52.006;4.374;2022-11-12T08:43:19;7.50;99.90
17178;DHT22;8704;52.006;4.374;2022-11-12T08:45:47;7.60;99.90
17178;DHT22;8704;52.006;4.374;2022-11-12T08:48:15;7.60;99.90
17178;DHT22;8704;52.006;4.374;2022-11-12T08:50:43;7.60;99.90
17178;DHT22;8704;52.006;4.374;2022-11-12T08:53:12;7.70;99.90
17178;DHT22;8704;52.006;4.374;2022-11-12T08:55:40;7.70;99.90
17178;DHT22;8704;52.006;4.374;2022-11-12T08:58:09;7.70;99.90
17178;DHT22;8704;52.006;4.374;2022-11-12T09:00:39;7.80;99.90
17178;DHT22;8704;52.006;4.374;2022-11-12T09:03:12;7.90;99.90
17178;DHT22;8704;52.006;4.374;2022-11-12T09:05:40;7.90;99.90
17178;DHT22;8704;52.006;4.374;2022-11-12T09:08:09;8.00;99.90
17178;DHT22;8704;52.006;4.374;2022-11-12T09:10:40;8.10;99.90
17178;DHT22;8704;52.006;4.374;2022-11-12T09:13:08;8.10;99.90
17178;DHT22;8704;52.006;4.374;2022-11-12T09:15:36;8.20;99.90
17178;DHT22;8704;52.006;4.374;2022-11-12T09:18:06;8.10;99.90
17178;DHT22;8704;52.006;4.374;2022-11-12T09:20:34;8.20;99.90
17178;DHT22;8704;52.006;4.374;2022-11-12T09:23:03;8.30;99.90
17178;DHT22;8704;52.006;4.374;2022-11-12T09:25:33;8.40;99.90
17178;DHT22;8704;52.006;4.374;2022-11-12T09:28:07;8.40;99.90
17178;DHT22;8704;52.006;4.374;2022-11-12T09:30:35;8.50;99.90
17178;DHT22;8704;52.006;4.374;2022-11-12T09:33:04;8.50;99.90
17178;DHT22;8704;52.006;4.374;2022-11-12T09:35:32;8.60;99.90
17178;DHT22;8704;52.006;4.374;2022-11-12T09:37:59;8.80;99.90
17178;DHT22;8704;52.006;4.374;2022-11-12T09:40:42;8.80;99.90
17178;DHT22;8704;52.006;4.374;2022-11-12T09:43:19;8.70;99.90
17178;DHT22;8704;52.006;4.374;2022-11-12T09:45:50;8.80;99.90
17178;DHT22;8704;52.006;4.374;2022-11-12T09:48:41;8.90;99.90
17178;DHT22;8704;52.006;4.374;2022-11-12T09:51:20;9.00;99.90
17178;DHT22;8704;52.006;4.374;2022-11-12T09:53:54;9.10;99.90
17178;DHT22;8704;52.006;4.374;2022-11-12T09:56:24;9.10;99.90
17178;DHT22;8704;52.006;4.374;2022-11-12T09:58:55;9.20;99.90
17178;DHT22;8704;52.006;4.374;2022-11-12T10:01:34;9.30;99.90
17178;DHT22;8704;52.006;4.374;2022-11-12T10:04:20;9.40;99.90
17178;DHT22;8704;52.006;4.374;2022-11-12T10:06:54;9.50;99.90
17178;DHT22;8704;52.006;4.374;2022-11-12T10:09:28;9.60;99.90
17178;DHT22;8704;52.006;4.374;2022-11-12T10:12:04;9.70;99.90
17178;DHT22;8704;52.006;4.374;2022-11-12T10:18:18;9.80;99.90
17178;DHT22;8704;52.006;4.374;2022-11-12T10:20:54;9.90;99.90
17178;DHT22;8704;52.006;4.374;2022-11-12T10:23:26;10.00;99.90
17178;DHT22;8704;52.006;4.374;2022-11-12T10:25:58;10.00;99.90
17178;DHT22;8704;52.006;4.374;2022-11-12T10:28:29;10.10;99.90
17178;DHT22;8704;52.006;4.374;2022-11-12T10:31:10;10.20;99.90
17178;DHT22;8704;52.006;4.374;2022-11-12T10:33:39;10.30;99.90
17178;DHT22;8704;52.006;4.374;2022-11-12T10:36:26;10.30;99.90
17178;DHT22;8704;52.006;4.374;2022-11-12T10:38:56;10.40;99.90
17178;DHT22;8704;52.006;4.374;2022-11-12T10:41:25;10.50;99.90
17178;DHT22;8704;52.006;4.374;2022-11-12T10:43:56;10.50;99.90
17178;DHT22;8704;52.006;4.374;2022-11-12T10:46:27;10.50;99.90
17178;DHT22;8704;52.006;4.374;2022-11-12T10:48:58;10.60;99.90
17178;DHT22;8704;52.006;4.374;2022-11-12T10:51:30;10.70;99.90
17178;DHT22;8704;52.006;4.374;2022-11-12T10:53:59;10.70;99.90
17178;DHT22;8704;52.006;4.374;2022-11-12T10:56:45;10.80;99.90
17178;DHT22;8704;52.006;4.374;2022-11-12T10:59:22;10.80;99.90
17178;DHT22;8704;52.006;4.374;2022-11-12T11:01:56;10.90;99.90
17178;DHT22;8704;52.006;4.374;2022-11-12T11:04:28;10.90;99.90
17178;DHT22;8704;52.006;4.374;2022-11-12T11:06:59;11.00;99.90
17178;DHT22;8704;52.006;4.374;2022-11-12T11:09:28;11.00;99.90
17178;DHT22;8704;52.006;4.374;2022-11-12T11:11:57;11.20;99.90
17178;DHT22;8704;52.006;4.374;2022-11-12T11:14:30;11.20;99.90
17178;DHT22;8704;52.006;4.374;2022-11-12T11:17:01;11.30;99.90
17178;DHT22;8704;52.006;4.374;2022-11-12T11:19:38;11.30;99.90
17178;DHT22;8704;52.006;4.374;2022-11-12T11:22:27;11.20;99.90
17178;DHT22;8704;52.006;4.374;2022-11-12T11:25:18;11.30;99.90
17178;DHT22;8704;52.006;4.374;2022-11-12T11:27:59;11.40;99.90
17178;DHT22;8704;52.006;4.374;2022-11-12T11:30:28;11.50;99.90
17178;DHT22;8704;52.006;4.374;2022-11-12T11:33:23;11.60;99.90
17178;DHT22;8704;52.006;4.374;2022-11-12T11:35:57;11.60;99.90
17178;DHT22;8704;52.006;4.374;2022-11-12T11:38:34;11.70;99.90
17178;DHT22;8704;52.006;4.374;2022-11-12T11:41:16;11.60;99.90
17178;DHT22;8704;52.006;4.374;2022-11-12T11:43:56;11.70;99.90
17178;DHT22;8704;52.006;4.374;2022-11-12T11:46:39;11.70;99.90
17178;DHT22;8704;52.006;4.374;2022-11-12T11:49:32;11.90;99.90
17178;DHT22;8704;52.006;4.374;2022-11-12T11:52:15;11.90;99.90
17178;DHT22;8704;52.006;4.374;2022-11-12T11:55:07;12.00;99.90
17178;DHT22;8704;52.006;4.374;2022-11-12T11:57:43;12.00;99.90
17178;DHT22;8704;52.006;4.374;2022-11-12T12:00:17;12.10;99.90
17178;DHT22;8704;52.006;4.374;2022-11-12T12:06:06;12.20;99.90
17178;DHT22;8704;52.006;4.374;2022-11-12T12:08:49;12.30;99.90
17178;DHT22;8704;52.006;4.374;2022-11-12T12:11:21;12.30;99.90
17178;DHT22;8704;52.006;4.374;2022-11-12T12:14:09;12.30;99.90
17178;DHT22;8704;52.006;4.374;2022-11-12T12:16:55;12.40;99.90
17178;DHT22;8704;52.006;4.374;2022-11-12T12:19:33;12.50;99.90
17178;DHT22;8704;52.006;4.374;2022-11-12T12:22:09;12.50;99.90
17178;DHT22;8704;52.006;4.374;2022-11-12T12:24:45;12.50;99.90
17178;DHT22;8704;52.006;4.374;2022-11-12T12:27:16;12.60;99.90
17178;DHT22;8704;52.006;4.374;2022-11-12T12:29:47;12.60;99.90
17178;DHT22;8704;52.006;4.374;2022-11-12T12:32:20;12.60;99.90
17178;DHT22;8704;52.006;4.374;2022-11-12T12:34:54;12.70;99.90
17178;DHT22;8704;52.006;4.374;2022-11-12T12:37:30;12.60;99.90
17178;DHT22;8704;52.006;4.374;2022-11-12T12:40:08;12.70;99.90
17178;DHT22;8704;52.006;4.374;2022-11-12T12:42:43;12.70;99.90
17178;DHT22;8704;52.006;4.374;2022-11-12T12:45:29;12.80;99.90
17178;DHT22;8704;52.006;4.374;2022-11-12T12:48:03;12.90;99.90
17178;DHT22;8704;52.006;4.374;2022-11-12T12:50:36;12.90;99.90
17178;DHT22;8704;52.006;4.374;2022-11-12T12:53:16;12.80;99.90
17178;DHT22;8704;52.006;4.374;2022-11-12T12:55:47;12.90;99.90
17178;DHT22;8704;52.006;4.374;2022-11-12T12:58:22;13.00;99.90
17178;DHT22;8704;52.006;4.374;2022-11-12T13:00:58;13.10;99.90
17178;DHT22;8704;52.006;4.374;2022-11-12T13:03:52;13.20;99.90
17178;DHT22;8704;52.006;4.374;2022-11-12T13:06:30;13.20;99.90
17178;DHT22;8704;52.006;4.374;2022-11-12T13:09:02;13.40;99.90
17178;DHT22;8704;52.006;4.374;2022-11-12T13:11:51;13.40;99.90
17178;DHT22;8704;52.006;4.374;2022-11-12T13:15:08;13.40;99.90
17178;DHT22;8704;52.006;4.374;2022-11-12T13:17:49;13.60;99.90
17178;DHT22;8704;52.006;4.374;2022-11-12T13:20:36;13.60;99.90
17178;DHT22;8704;52.006;4.374;2022-11-12T13:29:19;13.80;99.90
17178;DHT22;8704;52.006;4.374;2022-11-12T13:31:48;13.90;99.90
17178;DHT22;8704;52.006;4.374;2022-11-12T13:34:19;13.90;99.90
17178;DHT22;8704;52.006;4.374;2022-11-12T13:36:56;13.90;99.90
17178;DHT22;8704;52.006;4.374;2022-11-12T13:39:25;14.00;99.90
17178;DHT22;8704;52.006;4.374;2022-11-12T13:41:57;14.10;99.90
17178;DHT22;8704;52.006;4.374;2022-11-12T13:44:44;14.20;99.90
17178;DHT22;8704;52.006;4.374;2022-11-12T13:47:21;14.20;99.90
17178;DHT22;8704;52.006;4.374;2022-11-12T13:49:50;14.20;99.90
17178;DHT22;8704;52.006;4.374;2022-11-12T13:52:18;14.30;99.90
17178;DHT22;8704;52.006;4.374;2022-11-12T13:54:46;14.20;99.90
17178;DHT22;8704;52.006;4.374;2022-11-12T13:57:29;14.20;99.90
17178;DHT22;8704;52.006;4.374;2022-11-12T14:00:23;14.20;99.90
17178;DHT22;8704;52.006;4.374;2022-11-12T14:02:54;14.20;99.90
17178;DHT22;8704;52.006;4.374;2022-11-12T14:05:24;14.30;99.90
17178;DHT22;8704;52.006;4.374;2022-11-12T14:08:21;14.20;99.90
17178;DHT22;8704;52.006;4.374;2022-11-12T14:11:03;14.20;99.90
17178;DHT22;8704;52.006;4.374;2022-11-12T14:13:43;14.10;99.90
17178;DHT22;8704;52.006;4.374;2022-11-12T14:16:44;14.20;99.90
17178;DHT22;8704;52.006;4.374;2022-11-12T14:19:29;14.10;99.90
17178;DHT22;8704;52.006;4.374;2022-11-12T14:22:12;14.10;99.90
17178;DHT22;8704;52.006;4.374;2022-11-12T14:24:41;14.10;99.90
17178;DHT22;8704;52.006;4.374;2022-11-12T14:27:23;14.00;99.90
17178;DHT22;8704;52.006;4.374;2022-11-12T14:30:11;14.00;99.90
17178;DHT22;8704;52.006;4.374;2022-11-12T14:32:42;14.00;99.90
17178;DHT22;8704;52.006;4.374;2022-11-12T14:35:31;13.90;99.90
17178;DHT22;8704;52.006;4.374;2022-11-12T14:38:05;13.90;99.90
17178;DHT22;8704;52.006;4.374;2022-11-12T14:40:41;13.80;99.90
17178;DHT22;8704;52.006;4.374;2022-11-12T14:43:20;13.80;99.90
17178;DHT22;8704;52.006;4.374;2022-11-12T14:45:54;13.70;99.90
17178;DHT22;8704;52.006;4.374;2022-11-12T14:48:25;13.70;99.90
17178;DHT22;8704;52.006;4.374;2022-11-12T14:50:58;13.60;99.90
17178;DHT22;8704;52.006;4.374;2022-11-12T14:53:31;13.60;99.90
17178;DHT22;8704;52.006;4.374;2022-11-12T14:56:03;13.60;99.90
17178;DHT22;8704;52.006;4.374;2022-11-12T14:58:33;13.60;99.90
17178;DHT22;8704;52.006;4.374;2022-11-12T15:01:18;13.50;99.90
17178;DHT22;8704;52.006;4.374;2022-11-12T15:04:18;13.50;99.90
17178;DHT22;8704;52.006;4.374;2022-11-12T15:06:51;13.40;99.90
17178;DHT22;8704;52.006;4.374;2022-11-12T15:09:32;13.40;99.90
17178;DHT22;8704;52.006;4.374;2022-11-12T15:12:01;13.90;99.90
17178;DHT22;8704;52.006;4.374;2022-11-12T15:14:30;13.30;99.90
17178;DHT22;8704;52.006;4.374;2022-11-12T15:16:58;13.20;99.90
17178;DHT22;8704;52.006;4.374;2022-11-12T15:19:28;13.20;99.90
17178;DHT22;8704;52.006;4.374;2022-11-12T15:21:57;13.10;99.90
17178;DHT22;8704;52.006;4.374;2022-11-12T15:24:30;13.10;99.90
17178;DHT22;8704;52.006;4.374;2022-11-12T15:27:00;13.00;99.90
17178;DHT22;8704;52.006;4.374;2022-11-12T15:29:30;13.00;99.90
17178;DHT22;8704;52.006;4.374;2022-11-12T15:32:01;12.90;99.90
17178;DHT22;8704;52.006;4.374;2022-11-12T15:34:43;12.80;99.90
17178;DHT22;8704;52.006;4.374;2022-11-12T15:37:20;12.70;99.90
17178;DHT22;8704;52.006;4.374;2022-11-12T15:39:51;12.80;99.90
17178;DHT22;8704;52.006;4.374;2022-11-12T15:42:25;12.70;99.90
17178;DHT22;8704;52.006;4.374;2022-11-12T15:44:57;12.70;99.90
17178;DHT22;8704;52.006;4.374;2022-11-12T15:47:26;12.60;99.90
17178;DHT22;8704;52.006;4.374;2022-11-12T15:49:56;12.50;99.90
17178;DHT22;8704;52.006;4.374;2022-11-12T15:52:25;12.50;99.90
17178;DHT22;8704;52.006;4.374;2022-11-12T15:54:53;12.40;99.90
17178;DHT22;8704;52.006;4.374;2022-11-12T15:57:23;12.40;99.90
17178;DHT22;8704;52.006;4.374;2022-11-12T15:59:54;12.30;99.90
17178;DHT22;8704;52.006;4.374;2022-11-12T16:02:30;12.30;99.90
17178;DHT22;8704;52.006;4.374;2022-11-12T16:04:59;12.20;99.90
17178;DHT22;8704;52.006;4.374;2022-11-12T16:07:27;12.20;99.90
17178;DHT22;8704;52.006;4.374;2022-11-12T16:09:55;12.10;99.90
17178;DHT22;8704;52.006;4.374;2022-11-12T16:12:23;12.10;99.90
17178;DHT22;8704;52.006;4.374;2022-11-12T16:14:51;12.00;99.90
17178;DHT22;8704;52.006;4.374;2022-11-12T16:17:24;11.90;99.90
17178;DHT22;8704;52.006;4.374;2022-11-12T16:19:52;11.90;99.90
17178;DHT22;8704;52.006;4.374;2022-11-12T16:22:21;11.80;99.90
17178;DHT22;8704;52.006;4.374;2022-11-12T16:24:49;11.70;99.90
17178;DHT22;8704;52.006;4.374;2022-11-12T16:27:17;11.70;99.90
17178;DHT22;8704;52.006;4.374;2022-11-12T16:29:46;11.60;99.90
17178;DHT22;8704;52.006;4.374;2022-11-12T16:32:14;11.60;99.90
17178;DHT22;8704;52.006;4.374;2022-11-12T16:34:42;11.50;99.90
17178;DHT22;8704;52.006;4.374;2022-11-12T16:37:10;11.50;99.90
17178;DHT22;8704;52.006;4.374;2022-11-12T16:39:40;11.40;99.90